sensor_id;sensor_type;location;lat;lon;timestamp;P1;durP1;ratioP1;P2;durP2;ratioP2
20277;SDS011;10298;49.716;17.806;2022-07-06T00:01:52;7.95;;;5.47;;
20277;SDS011;10298;49.716;17.806;2022-07-06T00:04:19;8.48;;;5.38;;
20277;SDS011;10298;49.716;17.806;2022-07-06T00:06:47;7.40;;;5.28;;
20277;SDS011;10298;49.716;17.806;2022-07-06T00:09:14;8.05;;;5.32;;
20277;SDS011;10298;49.716;17.806;2022-07-06T00:11:41;12.20;;;4.95;;
20277;SDS011;10298;49.716;17.806;2022-07-06T00:14:08;8.60;;;5.68;;
20277;SDS011;10298;49.716;17.806;2022-07-06T00:16:35;8.60;;;5.38;;
20277;SDS011;10298;49.716;17.806;2022-07-06T00:19:02;9.43;;;5.38;;
20277;SDS011;10298;49.716;17.806;2022-07-06T00:21:29;7.75;;;5.60;;
20277;SDS011;10298;49.716;17.806;2022-07-06T00:23:56;7.72;;;5.28;;
20277;SDS011;10298;49.716;17.806;2022-07-06T00:26:23;7.07;;;5.43;;
20277;SDS011;10298;49.716;17.806;2022-07-06T00:28:50;7.60;;;5.18;;
20277;SDS011;10298;49.716;17.806;2022-07-06T00:31:16;11.60;;;5.35;;
20277;SDS011;10298;49.716;17.806;2022-07-06T00:33:43;7.28;;;5.15;;
20277;SDS011;10298;49.716;17.806;2022-07-06T00:36:11;10.65;;;5.57;;
20277;SDS011;10298;49.716;17.806;2022-07-06T00:38:38;10.10;;;5.80;;
20277;SDS011;10298;49.716;17.806;2022-07-06T00:41:05;11.27;;;5.70;;
20277;SDS011;10298;49.716;17.806;2022-07-06T00:43:51;6.85;;;5.18;;
20277;SDS011;10298;49.716;17.806;2022-07-06T00:46:23;8.43;;;5.20;;
20277;SDS011;10298;49.716;17.806;2022-07-06T00:48:57;8.43;;;5.75;;
20277;SDS011;10298;49.716;17.806;2022-07-06T00:51:25;7.45;;;5.50;;
20277;SDS011;10298;49.716;17.806;2022-07-06T00:53:58;8.65;;;5.53;;
20277;SDS011;10298;49.716;17.806;2022-07-06T00:56:28;8.65;;;5.50;;
20277;SDS011;10298;49.716;17.806;2022-07-06T00:59:00;8.23;;;5.10;;
20277;SDS011;10298;49.716;17.806;2022-07-06T01:01:28;10.18;;;5.55;;
20277;SDS011;10298;49.716;17.806;2022-07-06T01:03:55;6.28;;;4.93;;
20277;SDS011;10298;49.716;17.806;2022-07-06T01:06:22;6.43;;;4.82;;
20277;SDS011;10298;49.716;17.806;2022-07-06T01:08:49;7.72;;;5.20;;
20277;SDS011;10298;49.716;17.806;2022-07-06T01:11:16;5.80;;;4.57;;
20277;SDS011;10298;49.716;17.806;2022-07-06T01:13:45;6.82;;;5.22;;
20277;SDS011;10298;49.716;17.806;2022-07-06T01:16:13;6.65;;;5.07;;
20277;SDS011;10298;49.716;17.806;2022-07-06T01:18:41;6.70;;;5.10;;
20277;SDS011;10298;49.716;17.806;2022-07-06T01:21:08;7.63;;;5.22;;
20277;SDS011;10298;49.716;17.806;2022-07-06T01:23:40;13.23;;;5.40;;
20277;SDS011;10298;49.716;17.806;2022-07-06T01:26:09;7.93;;;5.10;;
20277;SDS011;10298;49.716;17.806;2022-07-06T01:28:37;6.93;;;4.30;;
20277;SDS011;10298;49.716;17.806;2022-07-06T01:31:04;9.85;;;5.47;;
20277;SDS011;10298;49.716;17.806;2022-07-06T01:33:31;6.80;;;4.68;;
20277;SDS011;10298;49.716;17.806;2022-07-06T01:35:58;6.30;;;4.47;;
20277;SDS011;10298;49.716;17.806;2022-07-06T01:38:25;9.07;;;4.75;;
20277;SDS011;10298;49.716;17.806;2022-07-06T01:40:52;7.40;;;4.35;;
20277;SDS011;10298;49.716;17.806;2022-07-06T01:43:19;7.70;;;4.88;;
20277;SDS011;10298;49.716;17.806;2022-07-06T01:45:46;7.72;;;4.30;;
20277;SDS011;10298;49.716;17.806;2022-07-06T01:48:13;9.00;;;4.90;;
20277;SDS011;10298;49.716;17.806;2022-07-06T01:50:40;6.93;;;4.53;;
20277;SDS011;10298;49.716;17.806;2022-07-06T01:53:06;6.53;;;4.55;;
20277;SDS011;10298;49.716;17.806;2022-07-06T01:55:33;8.77;;;3.97;;
20277;SDS011;10298;49.716;17.806;2022-07-06T01:58:00;8.38;;;4.65;;
20277;SDS011;10298;49.716;17.806;2022-07-06T02:00:27;8.90;;;4.20;;
20277;SDS011;10298;49.716;17.806;2022-07-06T02:02:54;6.15;;;4.10;;
20277;SDS011;10298;49.716;17.806;2022-07-06T02:05:20;8.65;;;4.53;;
20277;SDS011;10298;49.716;17.806;2022-07-06T02:07:47;5.03;;;4.10;;
20277;SDS011;10298;49.716;17.806;2022-07-06T02:10:14;13.00;;;4.40;;
20277;SDS011;10298;49.716;17.806;2022-07-06T02:12:41;6.72;;;4.07;;
20277;SDS011;10298;49.716;17.806;2022-07-06T02:15:08;5.55;;;3.92;;
20277;SDS011;10298;49.716;17.806;2022-07-06T02:17:35;7.47;;;3.83;;
20277;SDS011;10298;49.716;17.806;2022-07-06T02:20:03;8.27;;;4.18;;
20277;SDS011;10298;49.716;17.806;2022-07-06T02:22:31;7.18;;;4.10;;
20277;SDS011;10298;49.716;17.806;2022-07-06T02:24:58;8.20;;;4.13;;
20277;SDS011;10298;49.716;17.806;2022-07-06T02:27:24;6.50;;;3.83;;
20277;SDS011;10298;49.716;17.806;2022-07-06T02:29:51;6.63;;;4.03;;
20277;SDS011;10298;49.716;17.806;2022-07-06T02:32:18;8.70;;;4.05;;
20277;SDS011;10298;49.716;17.806;2022-07-06T02:34:45;7.97;;;4.22;;
20277;SDS011;10298;49.716;17.806;2022-07-06T02:37:12;8.07;;;4.35;;
20277;SDS011;10298;49.716;17.806;2022-07-06T02:39:39;7.20;;;4.13;;
20277;SDS011;10298;49.716;17.806;2022-07-06T02:42:05;7.93;;;3.78;;
20277;SDS011;10298;49.716;17.806;2022-07-06T02:44:32;7.15;;;4.18;;
20277;SDS011;10298;49.716;17.806;2022-07-06T02:46:59;8.15;;;3.80;;
20277;SDS011;10298;49.716;17.806;2022-07-06T02:49:26;5.90;;;3.95;;
20277;SDS011;10298;49.716;17.806;2022-07-06T02:51:53;7.32;;;4.00;;
20277;SDS011;10298;49.716;17.806;2022-07-06T02:54:20;7.72;;;4.20;;
20277;SDS011;10298;49.716;17.806;2022-07-06T02:56:47;9.90;;;4.28;;
20277;SDS011;10298;49.716;17.806;2022-07-06T02:59:19;10.60;;;3.97;;
20277;SDS011;10298;49.716;17.806;2022-07-06T03:01:46;5.38;;;3.60;;
20277;SDS011;10298;49.716;17.806;2022-07-06T03:04:13;6.00;;;3.80;;
20277;SDS011;10298;49.716;17.806;2022-07-06T03:06:40;6.60;;;4.10;;
20277;SDS011;10298;49.716;17.806;2022-07-06T03:09:06;7.50;;;4.40;;
20277;SDS011;10298;49.716;17.806;2022-07-06T03:11:33;7.70;;;3.75;;
20277;SDS011;10298;49.716;17.806;2022-07-06T03:14:03;8.73;;;4.63;;
20277;SDS011;10298;49.716;17.806;2022-07-06T03:16:31;6.38;;;4.30;;
20277;SDS011;10298;49.716;17.806;2022-07-06T03:18:58;9.23;;;3.75;;
20277;SDS011;10298;49.716;17.806;2022-07-06T03:21:25;7.75;;;4.20;;
20277;SDS011;10298;49.716;17.806;2022-07-06T03:23:52;6.75;;;3.97;;
20277;SDS011;10298;49.716;17.806;2022-07-06T03:26:19;6.78;;;4.10;;
20277;SDS011;10298;49.716;17.806;2022-07-06T03:28:46;8.38;;;4.00;;
20277;SDS011;10298;49.716;17.806;2022-07-06T03:31:12;9.80;;;3.90;;
20277;SDS011;10298;49.716;17.806;2022-07-06T03:33:39;7.18;;;4.25;;
20277;SDS011;10298;49.716;17.806;2022-07-06T03:36:06;5.50;;;3.78;;
20277;SDS011;10298;49.716;17.806;2022-07-06T03:38:34;7.50;;;3.80;;
20277;SDS011;10298;49.716;17.806;2022-07-06T03:41:02;7.22;;;3.35;;
20277;SDS011;10298;49.716;17.806;2022-07-06T03:43:29;5.22;;;3.20;;
20277;SDS011;10298;49.716;17.806;2022-07-06T03:45:56;6.00;;;3.22;;
20277;SDS011;10298;49.716;17.806;2022-07-06T03:48:23;6.53;;;3.20;;
20277;SDS011;10298;49.716;17.806;2022-07-06T03:50:51;6.25;;;3.13;;
20277;SDS011;10298;49.716;17.806;2022-07-06T03:53:18;4.25;;;2.78;;
20277;SDS011;10298;49.716;17.806;2022-07-06T03:55:45;6.88;;;3.03;;
20277;SDS011;10298;49.716;17.806;2022-07-06T03:58:34;6.30;;;3.38;;
20277;SDS011;10298;49.716;17.806;2022-07-06T04:01:01;6.75;;;3.10;;
20277;SDS011;10298;49.716;17.806;2022-07-06T04:03:28;7.70;;;3.38;;
20277;SDS011;10298;49.716;17.806;2022-07-06T04:05:59;6.28;;;3.38;;
20277;SDS011;10298;49.716;17.806;2022-07-06T04:08:26;6.30;;;2.95;;
20277;SDS011;10298;49.716;17.806;2022-07-06T04:10:53;6.55;;;3.15;;
20277;SDS011;10298;49.716;17.806;2022-07-06T04:13:20;6.80;;;3.25;;
20277;SDS011;10298;49.716;17.806;2022-07-06T04:15:46;5.88;;;3.20;;
20277;SDS011;10298;49.716;17.806;2022-07-06T04:18:13;4.55;;;3.10;;
20277;SDS011;10298;49.716;17.806;2022-07-06T04:20:40;4.93;;;3.00;;
20277;SDS011;10298;49.716;17.806;2022-07-06T04:23:07;4.07;;;2.65;;
20277;SDS011;10298;49.716;17.806;2022-07-06T04:25:34;5.38;;;3.10;;
20277;SDS011;10298;49.716;17.806;2022-07-06T04:28:01;6.85;;;2.92;;
20277;SDS011;10298;49.716;17.806;2022-07-06T04:30:28;6.47;;;3.20;;
20277;SDS011;10298;49.716;17.806;2022-07-06T04:32:55;6.82;;;3.20;;
20277;SDS011;10298;49.716;17.806;2022-07-06T04:35:22;4.85;;;3.10;;
20277;SDS011;10298;49.716;17.806;2022-07-06T04:37:49;5.88;;;3.17;;
20277;SDS011;10298;49.716;17.806;2022-07-06T04:40:16;4.97;;;2.92;;
20277;SDS011;10298;49.716;17.806;2022-07-06T04:42:44;7.38;;;3.10;;
20277;SDS011;10298;49.716;17.806;2022-07-06T04:45:11;5.93;;;2.80;;
20277;SDS011;10298;49.716;17.806;2022-07-06T04:47:38;11.52;;;3.42;;
20277;SDS011;10298;49.716;17.806;2022-07-06T04:50:05;4.55;;;2.88;;
20277;SDS011;10298;49.716;17.806;2022-07-06T04:52:32;8.55;;;3.00;;
20277;SDS011;10298;49.716;17.806;2022-07-06T04:54:59;4.50;;;2.53;;
20277;SDS011;10298;49.716;17.806;2022-07-06T04:57:26;5.40;;;2.90;;
20277;SDS011;10298;49.716;17.806;2022-07-06T04:59:55;5.40;;;3.00;;
20277;SDS011;10298;49.716;17.806;2022-07-06T05:02:22;4.88;;;2.95;;
20277;SDS011;10298;49.716;17.806;2022-07-06T05:04:49;4.35;;;2.83;;
20277;SDS011;10298;49.716;17.806;2022-07-06T05:07:16;4.55;;;2.60;;
20277;SDS011;10298;49.716;17.806;2022-07-06T05:09:43;3.65;;;2.38;;
20277;SDS011;10298;49.716;17.806;2022-07-06T05:12:17;4.45;;;2.53;;
20277;SDS011;10298;49.716;17.806;2022-07-06T05:14:43;4.07;;;2.55;;
20277;SDS011;10298;49.716;17.806;2022-07-06T05:17:10;5.25;;;2.35;;
20277;SDS011;10298;49.716;17.806;2022-07-06T05:19:37;4.78;;;2.25;;
20277;SDS011;10298;49.716;17.806;2022-07-06T05:22:04;7.03;;;2.50;;
20277;SDS011;10298;49.716;17.806;2022-07-06T05:24:31;7.35;;;2.40;;
20277;SDS011;10298;49.716;17.806;2022-07-06T05:26:58;4.15;;;2.35;;
20277;SDS011;10298;49.716;17.806;2022-07-06T05:29:24;7.50;;;2.63;;
20277;SDS011;10298;49.716;17.806;2022-07-06T05:31:51;4.20;;;2.60;;
20277;SDS011;10298;49.716;17.806;2022-07-06T05:34:18;7.15;;;2.50;;
20277;SDS011;10298;49.716;17.806;2022-07-06T05:36:45;4.78;;;2.60;;
20277;SDS011;10298;49.716;17.806;2022-07-06T05:39:12;4.30;;;2.60;;
20277;SDS011;10298;49.716;17.806;2022-07-06T05:41:39;5.10;;;2.50;;
20277;SDS011;10298;49.716;17.806;2022-07-06T05:44:05;6.78;;;2.85;;
20277;SDS011;10298;49.716;17.806;2022-07-06T05:46:32;4.28;;;2.60;;
20277;SDS011;10298;49.716;17.806;2022-07-06T05:48:59;5.45;;;2.70;;
20277;SDS011;10298;49.716;17.806;2022-07-06T05:51:44;4.80;;;2.60;;
20277;SDS011;10298;49.716;17.806;2022-07-06T05:54:11;5.45;;;2.50;;
20277;SDS011;10298;49.716;17.806;2022-07-06T05:56:38;4.25;;;2.40;;
20277;SDS011;10298;49.716;17.806;2022-07-06T05:59:05;7.38;;;2.92;;
20277;SDS011;10298;49.716;17.806;2022-07-06T06:01:32;4.45;;;2.75;;
20277;SDS011;10298;49.716;17.806;2022-07-06T06:03:59;4.97;;;2.60;;
20277;SDS011;10298;49.716;17.806;2022-07-06T06:06:26;7.22;;;2.72;;
20277;SDS011;10298;49.716;17.806;2022-07-06T06:08:53;6.53;;;2.90;;
20277;SDS011;10298;49.716;17.806;2022-07-06T06:11:20;7.03;;;2.83;;
20277;SDS011;10298;49.716;17.806;2022-07-06T06:13:47;5.05;;;3.40;;
20277;SDS011;10298;49.716;17.806;2022-07-06T06:16:13;5.40;;;3.45;;
20277;SDS011;10298;49.716;17.806;2022-07-06T06:18:42;5.97;;;3.30;;
20277;SDS011;10298;49.716;17.806;2022-07-06T06:21:09;6.82;;;3.83;;
20277;SDS011;10298;49.716;17.806;2022-07-06T06:23:36;9.40;;;3.95;;
20277;SDS011;10298;49.716;17.806;2022-07-06T06:26:03;8.13;;;4.57;;
20277;SDS011;10298;49.716;17.806;2022-07-06T06:28:30;6.88;;;4.38;;
20277;SDS011;10298;49.716;17.806;2022-07-06T06:30:57;7.05;;;4.63;;
20277;SDS011;10298;49.716;17.806;2022-07-06T06:33:24;5.53;;;4.30;;
20277;SDS011;10298;49.716;17.806;2022-07-06T06:35:51;11.02;;;4.57;;
20277;SDS011;10298;49.716;17.806;2022-07-06T06:38:19;7.25;;;4.40;;
20277;SDS011;10298;49.716;17.806;2022-07-06T06:40:48;8.25;;;4.55;;
20277;SDS011;10298;49.716;17.806;2022-07-06T06:43:15;7.38;;;4.65;;
20277;SDS011;10298;49.716;17.806;2022-07-06T06:45:42;10.57;;;4.63;;
20277;SDS011;10298;49.716;17.806;2022-07-06T06:48:10;7.13;;;4.22;;
20277;SDS011;10298;49.716;17.806;2022-07-06T06:50:42;7.25;;;5.50;;
20277;SDS011;10298;49.716;17.806;2022-07-06T06:53:10;8.13;;;4.57;;
20277;SDS011;10298;49.716;17.806;2022-07-06T06:55:37;7.82;;;4.38;;
20277;SDS011;10298;49.716;17.806;2022-07-06T06:58:04;7.70;;;4.32;;
20277;SDS011;10298;49.716;17.806;2022-07-06T07:00:30;6.68;;;4.90;;
20277;SDS011;10298;49.716;17.806;2022-07-06T07:02:57;9.52;;;4.82;;
20277;SDS011;10298;49.716;17.806;2022-07-06T07:05:24;8.70;;;5.20;;
20277;SDS011;10298;49.716;17.806;2022-07-06T07:07:51;7.75;;;4.63;;
20277;SDS011;10298;49.716;17.806;2022-07-06T07:10:18;6.20;;;4.25;;
20277;SDS011;10298;49.716;17.806;2022-07-06T07:12:48;7.35;;;4.50;;
20277;SDS011;10298;49.716;17.806;2022-07-06T07:15:15;8.30;;;5.03;;
20277;SDS011;10298;49.716;17.806;2022-07-06T07:17:42;6.32;;;5.10;;
20277;SDS011;10298;49.716;17.806;2022-07-06T07:20:09;8.63;;;5.28;;
20277;SDS011;10298;49.716;17.806;2022-07-06T07:22:37;7.85;;;4.75;;
20277;SDS011;10298;49.716;17.806;2022-07-06T07:25:05;5.95;;;4.90;;
20277;SDS011;10298;49.716;17.806;2022-07-06T07:27:32;7.72;;;4.72;;
20277;SDS011;10298;49.716;17.806;2022-07-06T07:29:59;5.72;;;4.03;;
20277;SDS011;10298;49.716;17.806;2022-07-06T07:32:26;4.28;;;2.80;;
20277;SDS011;10298;49.716;17.806;2022-07-06T07:34:53;5.80;;;2.75;;
20277;SDS011;10298;49.716;17.806;2022-07-06T07:37:20;4.72;;;2.40;;
20277;SDS011;10298;49.716;17.806;2022-07-06T07:39:46;3.45;;;2.40;;
20277;SDS011;10298;49.716;17.806;2022-07-06T07:42:13;3.47;;;2.10;;
20277;SDS011;10298;49.716;17.806;2022-07-06T07:44:43;3.47;;;2.20;;
20277;SDS011;10298;49.716;17.806;2022-07-06T07:47:10;4.10;;;2.25;;
20277;SDS011;10298;49.716;17.806;2022-07-06T07:49:37;4.03;;;2.45;;
20277;SDS011;10298;49.716;17.806;2022-07-06T07:52:05;6.18;;;2.80;;
20277;SDS011;10298;49.716;17.806;2022-07-06T07:54:32;5.53;;;2.20;;
20277;SDS011;10298;49.716;17.806;2022-07-06T07:56:59;5.35;;;2.10;;
20277;SDS011;10298;49.716;17.806;2022-07-06T07:59:26;8.95;;;5.45;;
20277;SDS011;10298;49.716;17.806;2022-07-06T08:01:53;6.65;;;5.90;;
20277;SDS011;10298;49.716;17.806;2022-07-06T08:04:20;3.75;;;2.47;;
20277;SDS011;10298;49.716;17.806;2022-07-06T08:06:47;6.10;;;4.30;;
20277;SDS011;10298;49.716;17.806;2022-07-06T08:09:14;9.63;;;8.73;;
20277;SDS011;10298;49.716;17.806;2022-07-06T08:11:42;6.78;;;3.55;;
20277;SDS011;10298;49.716;17.806;2022-07-06T08:14:09;5.82;;;2.85;;
20277;SDS011;10298;49.716;17.806;2022-07-06T08:16:37;3.42;;;2.33;;
20277;SDS011;10298;49.716;17.806;2022-07-06T08:19:04;5.43;;;2.55;;
20277;SDS011;10298;49.716;17.806;2022-07-06T08:21:36;4.18;;;2.40;;
20277;SDS011;10298;49.716;17.806;2022-07-06T08:24:03;6.45;;;2.55;;
20277;SDS011;10298;49.716;17.806;2022-07-06T08:26:30;3.63;;;2.60;;
20277;SDS011;10298;49.716;17.806;2022-07-06T08:28:57;5.47;;;2.53;;
20277;SDS011;10298;49.716;17.806;2022-07-06T08:31:24;4.50;;;3.10;;
20277;SDS011;10298;49.716;17.806;2022-07-06T08:34:13;9.52;;;3.40;;
20277;SDS011;10298;49.716;17.806;2022-07-06T08:36:40;5.55;;;3.67;;
20277;SDS011;10298;49.716;17.806;2022-07-06T08:39:07;9.00;;;3.15;;
20277;SDS011;10298;49.716;17.806;2022-07-06T08:41:34;5.13;;;2.70;;
20277;SDS011;10298;49.716;17.806;2022-07-06T08:44:02;4.63;;;3.10;;
20277;SDS011;10298;49.716;17.806;2022-07-06T08:46:30;8.38;;;3.50;;
20277;SDS011;10298;49.716;17.806;2022-07-06T08:48:57;5.13;;;2.70;;
20277;SDS011;10298;49.716;17.806;2022-07-06T08:51:27;7.50;;;2.75;;
20277;SDS011;10298;49.716;17.806;2022-07-06T08:53:55;4.63;;;2.90;;
20277;SDS011;10298;49.716;17.806;2022-07-06T08:56:24;9.23;;;3.47;;
20277;SDS011;10298;49.716;17.806;2022-07-06T08:58:51;5.07;;;3.30;;
20277;SDS011;10298;49.716;17.806;2022-07-06T09:01:20;5.82;;;3.47;;
20277;SDS011;10298;49.716;17.806;2022-07-06T09:03:48;5.10;;;3.40;;
20277;SDS011;10298;49.716;17.806;2022-07-06T09:06:16;6.63;;;3.03;;
20277;SDS011;10298;49.716;17.806;2022-07-06T09:08:47;4.80;;;3.60;;
20277;SDS011;10298;49.716;17.806;2022-07-06T09:11:15;5.97;;;3.35;;
20277;SDS011;10298;49.716;17.806;2022-07-06T09:13:42;4.10;;;3.20;;
20277;SDS011;10298;49.716;17.806;2022-07-06T09:16:09;5.47;;;3.58;;
20277;SDS011;10298;49.716;17.806;2022-07-06T09:18:57;5.53;;;3.53;;
20277;SDS011;10298;49.716;17.806;2022-07-06T09:21:25;5.75;;;3.60;;
20277;SDS011;10298;49.716;17.806;2022-07-06T09:23:57;4.57;;;3.28;;
20277;SDS011;10298;49.716;17.806;2022-07-06T09:26:29;4.45;;;3.30;;
20277;SDS011;10298;49.716;17.806;2022-07-06T09:28:56;4.95;;;3.35;;
20277;SDS011;10298;49.716;17.806;2022-07-06T09:31:25;5.65;;;3.40;;
20277;SDS011;10298;49.716;17.806;2022-07-06T09:33:57;5.30;;;3.42;;
20277;SDS011;10298;49.716;17.806;2022-07-06T09:39:24;4.22;;;3.13;;
20277;SDS011;10298;49.716;17.806;2022-07-06T09:41:59;5.25;;;3.13;;
20277;SDS011;10298;49.716;17.806;2022-07-06T09:44:28;4.72;;;2.97;;
20277;SDS011;10298;49.716;17.806;2022-07-06T09:46:57;4.93;;;2.65;;
20277;SDS011;10298;49.716;17.806;2022-07-06T09:49:25;5.10;;;3.10;;
20277;SDS011;10298;49.716;17.806;2022-07-06T09:51:56;4.15;;;2.80;;
20277;SDS011;10298;49.716;17.806;2022-07-06T09:54:25;5.55;;;2.80;;
20277;SDS011;10298;49.716;17.806;2022-07-06T09:56:53;5.20;;;2.80;;
20277;SDS011;10298;49.716;17.806;2022-07-06T09:59:22;3.92;;;2.45;;
20277;SDS011;10298;49.716;17.806;2022-07-06T10:01:52;4.55;;;2.30;;
20277;SDS011;10298;49.716;17.806;2022-07-06T10:04:22;5.05;;;2.70;;
20277;SDS011;10298;49.716;17.806;2022-07-06T10:06:51;5.65;;;2.40;;
20277;SDS011;10298;49.716;17.806;2022-07-06T10:09:19;4.75;;;3.10;;
20277;SDS011;10298;49.716;17.806;2022-07-06T10:11:49;5.53;;;3.30;;
20277;SDS011;10298;49.716;17.806;2022-07-06T10:14:18;3.55;;;2.17;;
20277;SDS011;10298;49.716;17.806;2022-07-06T10:16:47;5.60;;;2.50;;
20277;SDS011;10298;49.716;17.806;2022-07-06T10:19:16;3.03;;;2.13;;
20277;SDS011;10298;49.716;17.806;2022-07-06T10:21:44;3.80;;;2.05;;
20277;SDS011;10298;49.716;17.806;2022-07-06T10:24:12;3.38;;;1.70;;
20277;SDS011;10298;49.716;17.806;2022-07-06T10:26:40;2.83;;;1.60;;
20277;SDS011;10298;49.716;17.806;2022-07-06T10:29:08;3.15;;;1.77;;
20277;SDS011;10298;49.716;17.806;2022-07-06T10:31:39;3.92;;;2.10;;
20277;SDS011;10298;49.716;17.806;2022-07-06T10:34:11;2.83;;;2.08;;
20277;SDS011;10298;49.716;17.806;2022-07-06T10:36:40;3.70;;;2.20;;
20277;SDS011;10298;49.716;17.806;2022-07-06T10:39:08;3.00;;;1.88;;
20277;SDS011;10298;49.716;17.806;2022-07-06T10:41:55;5.35;;;2.22;;
20277;SDS011;10298;49.716;17.806;2022-07-06T10:44:23;3.38;;;2.70;;
20277;SDS011;10298;49.716;17.806;2022-07-06T10:46:55;3.92;;;1.92;;
20277;SDS011;10298;49.716;17.806;2022-07-06T10:49:28;2.83;;;2.00;;
20277;SDS011;10298;49.716;17.806;2022-07-06T10:52:18;2.80;;;1.83;;
20277;SDS011;10298;49.716;17.806;2022-07-06T10:54:45;5.45;;;1.95;;
20277;SDS011;10298;49.716;17.806;2022-07-06T10:57:13;3.13;;;1.92;;
20277;SDS011;10298;49.716;17.806;2022-07-06T11:00:01;4.50;;;1.83;;
20277;SDS011;10298;49.716;17.806;2022-07-06T11:02:37;3.67;;;1.77;;
20277;SDS011;10298;49.716;17.806;2022-07-06T11:05:10;2.55;;;1.92;;
20277;SDS011;10298;49.716;17.806;2022-07-06T11:07:50;5.22;;;1.98;;
20277;SDS011;10298;49.716;17.806;2022-07-06T11:10:17;2.88;;;1.90;;
20277;SDS011;10298;49.716;17.806;2022-07-06T11:12:46;1.98;;;1.65;;
20277;SDS011;10298;49.716;17.806;2022-07-06T11:15:32;2.88;;;1.75;;
20277;SDS011;10298;49.716;17.806;2022-07-06T11:18:26;3.47;;;1.90;;
20277;SDS011;10298;49.716;17.806;2022-07-06T11:23:42;4.93;;;1.80;;
20277;SDS011;10298;49.716;17.806;2022-07-06T11:26:11;4.03;;;1.90;;
20277;SDS011;10298;49.716;17.806;2022-07-06T11:28:38;2.42;;;2.00;;
20277;SDS011;10298;49.716;17.806;2022-07-06T11:31:05;3.90;;;1.90;;
20277;SDS011;10298;49.716;17.806;2022-07-06T11:33:32;2.10;;;1.48;;
20277;SDS011;10298;49.716;17.806;2022-07-06T11:36:18;4.75;;;1.70;;
20277;SDS011;10298;49.716;17.806;2022-07-06T11:38:47;4.90;;;1.90;;
20277;SDS011;10298;49.716;17.806;2022-07-06T11:41:16;3.55;;;1.98;;
20277;SDS011;10298;49.716;17.806;2022-07-06T11:43:44;3.95;;;1.67;;
20277;SDS011;10298;49.716;17.806;2022-07-06T11:48:53;2.58;;;1.70;;
20277;SDS011;10298;49.716;17.806;2022-07-06T11:51:47;3.88;;;2.10;;
20277;SDS011;10298;49.716;17.806;2022-07-06T11:54:17;2.25;;;1.60;;
20277;SDS011;10298;49.716;17.806;2022-07-06T11:56:55;2.45;;;1.60;;
20277;SDS011;10298;49.716;17.806;2022-07-06T11:59:27;2.95;;;1.85;;
20277;SDS011;10298;49.716;17.806;2022-07-06T12:04:32;1.92;;;1.60;;
20277;SDS011;10298;49.716;17.806;2022-07-06T12:07:02;2.10;;;1.58;;
20277;SDS011;10298;49.716;17.806;2022-07-06T12:09:31;3.63;;;2.15;;
20277;SDS011;10298;49.716;17.806;2022-07-06T12:11:58;3.85;;;1.80;;
20277;SDS011;10298;49.716;17.806;2022-07-06T12:14:29;5.47;;;2.03;;
20277;SDS011;10298;49.716;17.806;2022-07-06T12:17:08;4.80;;;2.97;;
20277;SDS011;10298;49.716;17.806;2022-07-06T12:19:40;5.68;;;3.47;;
20277;SDS011;10298;49.716;17.806;2022-07-06T12:22:09;3.17;;;2.10;;
20277;SDS011;10298;49.716;17.806;2022-07-06T12:24:37;2.60;;;1.92;;
20277;SDS011;10298;49.716;17.806;2022-07-06T12:27:12;2.95;;;1.75;;
20277;SDS011;10298;49.716;17.806;2022-07-06T12:29:43;3.25;;;1.80;;
20277;SDS011;10298;49.716;17.806;2022-07-06T12:32:15;3.70;;;2.22;;
20277;SDS011;10298;49.716;17.806;2022-07-06T12:37:55;4.60;;;1.65;;
20277;SDS011;10298;49.716;17.806;2022-07-06T12:40:25;2.85;;;1.80;;
20277;SDS011;10298;49.716;17.806;2022-07-06T12:42:56;4.85;;;2.20;;
20277;SDS011;10298;49.716;17.806;2022-07-06T12:45:26;2.63;;;1.58;;
20277;SDS011;10298;49.716;17.806;2022-07-06T12:50:31;2.28;;;1.92;;
20277;SDS011;10298;49.716;17.806;2022-07-06T12:53:04;2.28;;;1.60;;
20277;SDS011;10298;49.716;17.806;2022-07-06T12:55:32;4.63;;;1.65;;
20277;SDS011;10298;49.716;17.806;2022-07-06T12:57:58;2.30;;;1.52;;
20277;SDS011;10298;49.716;17.806;2022-07-06T13:00:25;2.33;;;1.60;;
20277;SDS011;10298;49.716;17.806;2022-07-06T13:02:53;2.80;;;1.60;;
20277;SDS011;10298;49.716;17.806;2022-07-06T13:05:48;3.97;;;1.70;;
20277;SDS011;10298;49.716;17.806;2022-07-06T13:08:16;2.03;;;1.40;;
20277;SDS011;10298;49.716;17.806;2022-07-06T13:10:42;3.20;;;1.88;;
20277;SDS011;10298;49.716;17.806;2022-07-06T13:13:11;3.80;;;1.30;;
20277;SDS011;10298;49.716;17.806;2022-07-06T13:15:40;3.42;;;1.40;;
20277;SDS011;10298;49.716;17.806;2022-07-06T13:18:08;3.08;;;1.50;;
20277;SDS011;10298;49.716;17.806;2022-07-06T13:20:39;2.17;;;1.30;;
20277;SDS011;10298;49.716;17.806;2022-07-06T13:23:07;3.80;;;1.38;;
20277;SDS011;10298;49.716;17.806;2022-07-06T13:25:34;2.20;;;1.40;;
20277;SDS011;10298;49.716;17.806;2022-07-06T13:28:01;2.03;;;1.13;;
20277;SDS011;10298;49.716;17.806;2022-07-06T13:30:28;1.80;;;1.13;;
20277;SDS011;10298;49.716;17.806;2022-07-06T13:32:55;1.63;;;1.10;;
20277;SDS011;10298;49.716;17.806;2022-07-06T13:35:23;2.35;;;1.30;;
20277;SDS011;10298;49.716;17.806;2022-07-06T13:37:50;1.25;;;1.10;;
20277;SDS011;10298;49.716;17.806;2022-07-06T13:40:17;1.92;;;1.20;;
20277;SDS011;10298;49.716;17.806;2022-07-06T13:42:43;3.65;;;2.60;;
20277;SDS011;10298;49.716;17.806;2022-07-06T13:45:12;4.20;;;2.20;;
20277;SDS011;10298;49.716;17.806;2022-07-06T13:47:38;2.67;;;1.67;;
20277;SDS011;10298;49.716;17.806;2022-07-06T13:50:05;2.13;;;1.40;;
20277;SDS011;10298;49.716;17.806;2022-07-06T13:52:33;1.98;;;1.17;;
20277;SDS011;10298;49.716;17.806;2022-07-06T13:55:00;3.22;;;1.20;;
20277;SDS011;10298;49.716;17.806;2022-07-06T13:57:28;2.70;;;1.20;;
20277;SDS011;10298;49.716;17.806;2022-07-06T13:59:55;3.40;;;1.30;;
20277;SDS011;10298;49.716;17.806;2022-07-06T14:02:22;2.20;;;1.30;;
20277;SDS011;10298;49.716;17.806;2022-07-06T14:04:49;2.45;;;1.20;;
20277;SDS011;10298;49.716;17.806;2022-07-06T14:07:16;3.92;;;1.20;;
20277;SDS011;10298;49.716;17.806;2022-07-06T14:09:46;3.30;;;1.30;;
20277;SDS011;10298;49.716;17.806;2022-07-06T14:12:18;3.33;;;1.17;;
20277;SDS011;10298;49.716;17.806;2022-07-06T14:14:45;3.40;;;1.50;;
20277;SDS011;10298;49.716;17.806;2022-07-06T14:17:12;1.95;;;1.30;;
20277;SDS011;10298;49.716;17.806;2022-07-06T14:19:39;2.75;;;1.40;;
20277;SDS011;10298;49.716;17.806;2022-07-06T14:22:06;2.38;;;1.10;;
20277;SDS011;10298;49.716;17.806;2022-07-06T14:24:33;3.40;;;1.35;;
20277;SDS011;10298;49.716;17.806;2022-07-06T14:27:01;2.55;;;1.30;;
20277;SDS011;10298;49.716;17.806;2022-07-06T14:29:28;1.70;;;1.30;;
20277;SDS011;10298;49.716;17.806;2022-07-06T14:31:55;1.73;;;1.30;;
20277;SDS011;10298;49.716;17.806;2022-07-06T14:34:22;2.67;;;1.38;;
20277;SDS011;10298;49.716;17.806;2022-07-06T14:36:50;1.92;;;1.27;;
20277;SDS011;10298;49.716;17.806;2022-07-06T14:39:17;2.22;;;1.30;;
20277;SDS011;10298;49.716;17.806;2022-07-06T14:41:44;3.10;;;1.60;;
20277;SDS011;10298;49.716;17.806;2022-07-06T14:44:11;3.92;;;1.60;;
20277;SDS011;10298;49.716;17.806;2022-07-06T14:46:38;5.75;;;1.73;;
20277;SDS011;10298;49.716;17.806;2022-07-06T14:49:05;2.50;;;1.48;;
20277;SDS011;10298;49.716;17.806;2022-07-06T14:51:32;5.05;;;1.83;;
20277;SDS011;10298;49.716;17.806;2022-07-06T14:53:59;3.85;;;1.80;;
20277;SDS011;10298;49.716;17.806;2022-07-06T14:56:26;1.92;;;1.50;;
20277;SDS011;10298;49.716;17.806;2022-07-06T14:58:53;2.08;;;1.60;;